Seacod — DDPW — position and weather

sailwx.info

Track history (hours):
 
Tides and Currents Weather Stations Pressure Air Temp Water Temp Dewpoint Dewpoint Depression Visibility Wind Speed Wind Dir Waves Ship Positions

Seacod

Last reported at 2014-Jul-22 08:14 UTC. Time now 2014-Jul-22 09:20 UTC.
Position N 51°46' E 003°17'.

Length 188 m; draft 9.8 m.

Type: Ship. MMSI: 218019000.

Date/timePositionNaut miles runAvg speedWind from/ knotsBaromVisibWave heightAir tempDewpointWater temp
2014-Jul-22 08:14N 51°46' E 003°17'0 0.0
2014-Jul-22 00:14N 51°46' E 003°17'0 0.0
2014-Jul-21 12:29N 51°46' E 003°17'0 0.0
2014-Jul-21 08:05N 51°46' E 003°17'0 0.0
2014-Jul-21 07:32N 51°46' E 003°17'0 0.0
2014-Jul-21 05:29N 51°46' E 003°17'0 0.0
2014-Jul-21 04:26N 51°46' E 003°17'0 0.0
2014-Jul-21 03:32N 51°46' E 003°17'0 0.0
2014-Jul-21 02:32N 51°46' E 003°17'0 0.0
2014-Jul-21 01:29N 51°46' E 003°17'0 0.0
2014-Jul-21 00:32N 51°46' E 003°17'0 0.0
2014-Jul-20 23:29N 51°46' E 003°17'0 0.0
2014-Jul-20 22:32N 51°46' E 003°17'0 0.0
2014-Jul-20 21:32N 51°46' E 003°17'0 0.0
2014-Jul-20 18:17N 51°46' E 003°17'0 0.0
2014-Jul-20 17:32N 51°46' E 003°17'0 0.0
2014-Jul-20 15:32N 51°46' E 003°17'0 0.0
2014-Jul-20 14:32N 51°46' E 003°17'0 0.0
2014-Jul-20 13:32N 51°46' E 003°17'0 0.0
2014-Jul-20 12:29N 51°46' E 003°17'0 0.0
2014-Jul-20 11:29N 51°46' E 003°17'0 0.0
2014-Jul-20 10:32N 51°46' E 003°17'0 0.2
2014-Jul-20 09:33N 51°46' E 003°17'9 9.6
2014-Jul-20 08:33N 51°48' E 003°02'1812.8
2014-Jul-20 07:10N 51°55' E 002°36'1112.8
2014-Jul-20 06:19N 52°06' E 002°36'1113.1
2014-Jul-20 05:30N 52°16' E 002°41'12313.6
2014-Jul-19 20:28N 54°04' E 004°20'1613.9
2014-Jul-19 19:19N 54°17' E 004°35'1114.0
2014-Jul-19 18:33N 54°26' E 004°46'7217.8
2014-Jul-19 14:30N 55°25' E 005°59'12 9.8
2014-Jul-19 13:13N 55°35' E 006°11'1921.5
2014-Jul-19 12:21N 55°50' E 006°30'6 7.1
2014-Jul-19 11:30N 55°55' E 006°36'5011.3
2014-Jul-19 07:07N 56°36' E 007°27'814.1
2014-Jul-19 06:34N 56°43' E 007°35'10013.4
2014-Jul-18 23:05N 57°45' E 009°59'914.1
2014-Jul-18 22:25N 57°47' E 010°16'1213.5
2014-Jul-18 21:33N 57°49' E 010°38'1111.5
2014-Jul-18 20:33N 57°43' E 010°57'1413.7
2014-Jul-18 19:34N 57°34' E 011°16'1313.1
2014-Jul-18 18:33N 57°23' E 011°30'1414.3
2014-Jul-18 17:33N 57°10' E 011°38'1414.2
2014-Jul-18 16:33N 56°56' E 011°47'1312.5
2014-Jul-18 15:33N 56°44' E 011°50'1413.7
2014-Jul-18 14:32N 56°35' E 011°31'8611.5
2014-Jul-18 07:04N 55°10' E 011°01'612.4
2014-Jul-18 06:34N 55°04' E 010°60'1312.5
2014-Jul-18 05:33N 54°52' E 010°50'1212.3
2014-Jul-18 04:33N 54°40' E 010°49'1313.1
2014-Jul-18 03:34N 54°36' E 011°10'1414.0
2014-Jul-18 02:34N 54°30' E 011°32'1313.1
2014-Jul-18 01:34N 54°27' E 011°54'1211.7
2014-Jul-18 00:34N 54°30' E 012°13'1111.0
2014-Jul-17 23:34N 54°39' E 012°23'1211.6
2014-Jul-17 22:34N 54°45' E 012°40'1211.5
2014-Jul-17 21:33N 54°51' E 012°58'1211.6
2014-Jul-17 20:34N 54°55' E 013°16'1111.5
2014-Jul-17 19:34N 54°59' E 013°35'1411.7
2014-Jul-17 18:23N 55°04' E 013°58'1312.2
2014-Jul-17 17:20N 55°12' E 014°14'1012.6
2014-Jul-17 16:32N 55°20' E 014°25'1312.3
2014-Jul-17 15:30N 55°29' E 014°42'1212.6
2014-Jul-17 14:33N 55°35' E 014°60'1313.1
2014-Jul-17 13:34N 55°42' E 015°19'1613.9
2014-Jul-17 12:22N 55°49' E 015°46'1114.1
2014-Jul-17 11:33N 55°55' E 016°04'1414.0
2014-Jul-17 10:33N 56°01' E 016°25'5513.9
2014-Jul-17 06:33N 56°34' E 017°46'1413.7
2014-Jul-17 05:31N 56°42' E 018°07'1313.6
2014-Jul-17 04:34N 56°50' E 018°26'1413.8
2014-Jul-17 03:33N 57°02' E 018°41'20413.5
2014-Jul-16 12:28N 59°34' E 022°58'1313.5
2014-Jul-16 11:30N 59°38' E 023°23'1313.7
2014-Jul-16 10:33N 59°42' E 023°47'7013.8
2014-Jul-16 05:30N 59°58' E 026°02'1313.6
2014-Jul-16 04:31N 60°01' E 026°28'1313.5
2014-Jul-16 03:33N 60°00' E 026°54'1313.2
2014-Jul-16 02:33N 60°04' E 027°19'10 0.2
2014-Jul-14 04:21N 59°58' E 027°03'1215.3
2014-Jul-14 03:33N 59°59' E 026°38'7715.3
2014-Jul-13 22:33N 59°41' E 024°10'1515.2
2014-Jul-13 21:33N 59°37' E 023°42'1615.3
2014-Jul-13 20:31N 59°31' E 023°12'34214.8
2014-Jul-12 21:21N 55°39' E 015°24'1114.4
2014-Jul-12 20:33N 55°33' E 015°07'1514.8
2014-Jul-12 19:33N 55°26' E 014°44'1414.0
2014-Jul-12 18:34N 55°16' E 014°27'4213.8
2014-Jul-12 15:33N 55°13' E 013°14'1514.8
2014-Jul-12 14:34N 55°16' E 012°48'1111.4
2014-Jul-12 13:33N 55°26' E 012°40'1211.7
2014-Jul-12 12:34N 55°38' E 012°42'1414.1
2014-Jul-12 11:33N 55°52' E 012°41'1313.5
2014-Jul-12 10:33N 56°05' E 012°35'1413.8
2014-Jul-12 09:33N 56°13' E 012°16'1414.3
2014-Jul-12 08:33N 56°25' E 012°01'  
Track history (hours):
 
Tides and Currents Weather Stations Pressure Air Temp Water Temp Dewpoint Dewpoint Depression Visibility Wind Speed Wind Dir Waves Ship Positions

Seacod

Last reported at 2014-Jul-22 08:14 UTC. Time now 2014-Jul-22 09:20 UTC.
Position N 51°46' E 003°17'.

Length 188 m; draft 9.8 m.

Type: Ship. MMSI: 218019000.

Date/timePositionNaut miles runAvg speedWind from/ knotsBaromVisibWave heightAir tempDewpointWater temp
2014-Jul-22 08:14N 51°46' E 003°17'0 0.0
2014-Jul-22 00:14N 51°46' E 003°17'0 0.0
2014-Jul-21 12:29N 51°46' E 003°17'0 0.0
2014-Jul-21 08:05N 51°46' E 003°17'0 0.0
2014-Jul-21 07:32N 51°46' E 003°17'0 0.0
2014-Jul-21 05:29N 51°46' E 003°17'0 0.0
2014-Jul-21 04:26N 51°46' E 003°17'0 0.0
2014-Jul-21 03:32N 51°46' E 003°17'0 0.0
2014-Jul-21 02:32N 51°46' E 003°17'0 0.0
2014-Jul-21 01:29N 51°46' E 003°17'0 0.0
2014-Jul-21 00:32N 51°46' E 003°17'0 0.0
2014-Jul-20 23:29N 51°46' E 003°17'0 0.0
2014-Jul-20 22:32N 51°46' E 003°17'0 0.0
2014-Jul-20 21:32N 51°46' E 003°17'0 0.0
2014-Jul-20 18:17N 51°46' E 003°17'0 0.0
2014-Jul-20 17:32N 51°46' E 003°17'0 0.0
2014-Jul-20 15:32N 51°46' E 003°17'0 0.0
2014-Jul-20 14:32N 51°46' E 003°17'0 0.0
2014-Jul-20 13:32N 51°46' E 003°17'0 0.0
2014-Jul-20 12:29N 51°46' E 003°17'0 0.0
2014-Jul-20 11:29N 51°46' E 003°17'0 0.0
2014-Jul-20 10:32N 51°46' E 003°17'0 0.2
2014-Jul-20 09:33N 51°46' E 003°17'9 9.6
2014-Jul-20 08:33N 51°48' E 003°02'1812.8
2014-Jul-20 07:10N 51°55' E 002°36'1112.8
2014-Jul-20 06:19N 52°06' E 002°36'1113.1
2014-Jul-20 05:30N 52°16' E 002°41'12313.6
2014-Jul-19 20:28N 54°04' E 004°20'1613.9
2014-Jul-19 19:19N 54°17' E 004°35'1114.0
2014-Jul-19 18:33N 54°26' E 004°46'7217.8
2014-Jul-19 14:30N 55°25' E 005°59'12 9.8
2014-Jul-19 13:13N 55°35' E 006°11'1921.5
2014-Jul-19 12:21N 55°50' E 006°30'6 7.1
2014-Jul-19 11:30N 55°55' E 006°36'5011.3
2014-Jul-19 07:07N 56°36' E 007°27'814.1
2014-Jul-19 06:34N 56°43' E 007°35'10013.4
2014-Jul-18 23:05N 57°45' E 009°59'914.1
2014-Jul-18 22:25N 57°47' E 010°16'1213.5
2014-Jul-18 21:33N 57°49' E 010°38'1111.5
2014-Jul-18 20:33N 57°43' E 010°57'1413.7
2014-Jul-18 19:34N 57°34' E 011°16'1313.1
2014-Jul-18 18:33N 57°23' E 011°30'1414.3
2014-Jul-18 17:33N 57°10' E 011°38'1414.2
2014-Jul-18 16:33N 56°56' E 011°47'1312.5
2014-Jul-18 15:33N 56°44' E 011°50'1413.7
2014-Jul-18 14:32N 56°35' E 011°31'8611.5
2014-Jul-18 07:04N 55°10' E 011°01'612.4
2014-Jul-18 06:34N 55°04' E 010°60'1312.5
2014-Jul-18 05:33N 54°52' E 010°50'1212.3
2014-Jul-18 04:33N 54°40' E 010°49'1313.1
2014-Jul-18 03:34N 54°36' E 011°10'1414.0
2014-Jul-18 02:34N 54°30' E 011°32'1313.1
2014-Jul-18 01:34N 54°27' E 011°54'1211.7
2014-Jul-18 00:34N 54°30' E 012°13'1111.0
2014-Jul-17 23:34N 54°39' E 012°23'1211.6
2014-Jul-17 22:34N 54°45' E 012°40'1211.5
2014-Jul-17 21:33N 54°51' E 012°58'1211.6
2014-Jul-17 20:34N 54°55' E 013°16'1111.5
2014-Jul-17 19:34N 54°59' E 013°35'1411.7
2014-Jul-17 18:23N 55°04' E 013°58'1312.2
2014-Jul-17 17:20N 55°12' E 014°14'1012.6
2014-Jul-17 16:32N 55°20' E 014°25'1312.3
2014-Jul-17 15:30N 55°29' E 014°42'1212.6
2014-Jul-17 14:33N 55°35' E 014°60'1313.1
2014-Jul-17 13:34N 55°42' E 015°19'1613.9
2014-Jul-17 12:22N 55°49' E 015°46'1114.1
2014-Jul-17 11:33N 55°55' E 016°04'1414.0
2014-Jul-17 10:33N 56°01' E 016°25'5513.9
2014-Jul-17 06:33N 56°34' E 017°46'1413.7
2014-Jul-17 05:31N 56°42' E 018°07'1313.6
2014-Jul-17 04:34N 56°50' E 018°26'1413.8
2014-Jul-17 03:33N 57°02' E 018°41'20413.5
2014-Jul-16 12:28N 59°34' E 022°58'1313.5
2014-Jul-16 11:30N 59°38' E 023°23'1313.7
2014-Jul-16 10:33N 59°42' E 023°47'7013.8
2014-Jul-16 05:30N 59°58' E 026°02'1313.6
2014-Jul-16 04:31N 60°01' E 026°28'1313.5
2014-Jul-16 03:33N 60°00' E 026°54'1313.2
2014-Jul-16 02:33N 60°04' E 027°19'10 0.2
2014-Jul-14 04:21N 59°58' E 027°03'1215.3
2014-Jul-14 03:33N 59°59' E 026°38'7715.3
2014-Jul-13 22:33N 59°41' E 024°10'1515.2
2014-Jul-13 21:33N 59°37' E 023°42'1615.3
2014-Jul-13 20:31N 59°31' E 023°12'34214.8
2014-Jul-12 21:21N 55°39' E 015°24'1114.4
2014-Jul-12 20:33N 55°33' E 015°07'1514.8
2014-Jul-12 19:33N 55°26' E 014°44'1414.0
2014-Jul-12 18:34N 55°16' E 014°27'4213.8
2014-Jul-12 15:33N 55°13' E 013°14'1514.8
2014-Jul-12 14:34N 55°16' E 012°48'1111.4
2014-Jul-12 13:33N 55°26' E 012°40'1211.7
2014-Jul-12 12:34N 55°38' E 012°42'1414.1
2014-Jul-12 11:33N 55°52' E 012°41'1313.5
2014-Jul-12 10:33N 56°05' E 012°35'1413.8
2014-Jul-12 09:33N 56°13' E 012°16'1414.3
2014-Jul-12 08:33N 56°25' E 012°01'  

Dump ship's entire track history